Time;durP1;ratioP1;P1;durP2;ratioP2;P2;SDS_P1;SDS_P2;PMS_P1;PMS_P2;Temp;Humidity;BMP_temperature;BMP_pressure;BME280_temperature;BME280_humidity;BME280_pressure;Samples;Min_cycle;Max_cycle;Signal;HPM_P1;HPM_P2
2022/03/14 00:02:16;;;;;;;3.72;1.90;;;;;;;;;;5088617;28;20064;-62
2022/03/14 00:04:43;;;;;;;4.43;2.08;;;;;;;;;;5088933;28;20079;-62
2022/03/14 00:07:10;;;;;;;4.07;1.83;;;;;;;;;;5087823;28;20055;-62
2022/03/14 00:09:36;;;;;;;3.30;1.77;;;;;;;;;;5088608;28;20059;-62
2022/03/14 00:12:05;;;;;;;4.50;1.75;;;;;;;;;;5087645;28;20294;-62
2022/03/14 00:14:32;;;;;;;4.80;1.92;;;;;;;;;;5088165;28;20048;-62
2022/03/14 00:16:59;;;;;;;3.75;1.90;;;;;;;;;;5087922;28;20051;-62
2022/03/14 00:19:25;;;;;;;4.78;1.90;;;;;;;;;;5088174;28;20095;-62
2022/03/14 00:21:51;;;;;;;4.50;2.00;;;;;;;;;;5088380;28;20048;-61
2022/03/14 00:24:18;;;;;;;3.55;1.77;;;;;;;;;;5085764;28;20154;-62
2022/03/14 00:26:44;;;;;;;4.43;2.13;;;;;;;;;;5068099;28;20164;-62
2022/03/14 00:29:10;;;;;;;3.88;1.90;;;;;;;;;;5066994;28;20052;-62
2022/03/14 00:31:37;;;;;;;3.97;1.90;;;;;;;;;;5067226;28;20502;-62
2022/03/14 00:34:03;;;;;;;5.30;1.88;;;;;;;;;;5066826;28;20148;-62
2022/03/14 00:36:29;;;;;;;4.60;1.90;;;;;;;;;;5067123;28;20060;-62
2022/03/14 00:38:56;;;;;;;3.72;1.80;;;;;;;;;;5067351;28;20060;-61
2022/03/14 00:41:22;;;;;;;4.00;1.83;;;;;;;;;;5068231;28;20052;-62
2022/03/14 00:43:48;;;;;;;3.70;1.70;;;;;;;;;;5066942;28;20064;-62
2022/03/14 00:46:16;;;;;;;3.17;1.67;;;;;;;;;;5067556;28;20067;-62
2022/03/14 00:48:44;;;;;;;3.35;1.70;;;;;;;;;;5083820;28;20118;-62
2022/03/14 00:51:10;;;;;;;3.63;1.70;;;;;;;;;;5087815;28;20431;-62
2022/03/14 00:53:37;;;;;;;3.40;1.67;;;;;;;;;;5087309;28;20517;-62
2022/03/14 00:56:04;;;;;;;3.65;1.73;;;;;;;;;;5086621;28;20918;-62
2022/03/14 00:58:30;;;;;;;3.50;1.65;;;;;;;;;;5085463;28;20057;-62
2022/03/14 01:00:56;;;;;;;3.45;1.70;;;;;;;;;;5067479;28;20079;-62
2022/03/14 01:03:23;;;;;;;3.38;1.60;;;;;;;;;;5067262;28;20059;-62
2022/03/14 01:05:49;;;;;;;4.38;1.80;;;;;;;;;;5067575;28;20557;-62
2022/03/14 01:08:16;;;;;;;3.10;1.58;;;;;;;;;;5066280;28;20053;-62
2022/03/14 01:10:43;;;;;;;4.05;1.90;;;;;;;;;;5067246;28;20151;-65
2022/03/14 01:13:11;;;;;;;3.50;1.67;;;;;;;;;;5067020;28;20049;-62
2022/03/14 01:15:37;;;;;;;4.32;2.03;;;;;;;;;;5067380;28;20057;-62
2022/03/14 01:18:05;;;;;;;4.28;1.90;;;;;;;;;;5066560;28;20574;-62
2022/03/14 01:20:32;;;;;;;4.00;1.95;;;;;;;;;;5067434;28;20106;-62
2022/03/14 01:22:59;;;;;;;3.50;1.77;;;;;;;;;;5067283;28;20349;-62
2022/03/14 01:25:25;;;;;;;3.58;1.70;;;;;;;;;;5067164;28;20056;-62
2022/03/14 01:27:52;;;;;;;5.43;1.98;;;;;;;;;;5067236;28;20081;-62
2022/03/14 01:30:19;;;;;;;3.58;1.80;;;;;;;;;;5067089;28;20140;-62
2022/03/14 01:32:46;;;;;;;4.15;1.88;;;;;;;;;;5068098;28;20107;-62
2022/03/14 01:35:12;;;;;;;4.15;1.90;;;;;;;;;;5067257;28;20476;-62
2022/03/14 01:37:38;;;;;;;3.67;1.77;;;;;;;;;;5065869;28;20570;-63
2022/03/14 01:40:09;;;;;;;3.95;1.90;;;;;;;;;;5068616;28;20052;-63
2022/03/14 01:42:35;;;;;;;4.10;1.90;;;;;;;;;;5070706;28;20434;-62
2022/03/14 01:45:03;;;;;;;5.00;2.05;;;;;;;;;;5070523;28;20053;-62
2022/03/14 01:47:30;;;;;;;4.53;1.98;;;;;;;;;;5070311;28;20609;-67
2022/03/14 01:49:56;;;;;;;3.95;1.70;;;;;;;;;;5081778;28;20151;-65
2022/03/14 01:52:22;;;;;;;3.70;2.08;;;;;;;;;;5091276;28;20049;-62
2022/03/14 01:54:49;;;;;;;4.40;2.00;;;;;;;;;;5089464;28;20119;-64
2022/03/14 01:57:16;;;;;;;4.47;1.83;;;;;;;;;;5090827;28;20551;-62
2022/03/14 01:59:42;;;;;;;4.53;2.03;;;;;;;;;;5090610;28;20135;-61
2022/03/14 02:02:09;;;;;;;4.28;1.85;;;;;;;;;;5089096;28;20514;-64
2022/03/14 02:04:36;;;;;;;3.60;1.63;;;;;;;;;;5090354;28;20066;-62
2022/03/14 02:07:04;;;;;;;3.50;1.60;;;;;;;;;;5089672;28;20052;-62
2022/03/14 02:09:30;;;;;;;3.90;1.90;;;;;;;;;;5090525;28;20568;-64
2022/03/14 02:11:56;;;;;;;3.70;1.88;;;;;;;;;;5089523;28;20114;-62
2022/03/14 02:14:23;;;;;;;3.67;1.80;;;;;;;;;;5090554;28;20056;-62
2022/03/14 02:16:50;;;;;;;3.42;1.60;;;;;;;;;;5090301;28;20490;-61
2022/03/14 02:19:17;;;;;;;4.22;1.90;;;;;;;;;;5079091;28;20080;-62
2022/03/14 02:21:43;;;;;;;3.65;1.80;;;;;;;;;;5069634;28;20523;-62
2022/03/14 02:24:09;;;;;;;3.63;1.70;;;;;;;;;;5069989;28;20547;-61
2022/03/14 02:26:39;;;;;;;5.78;1.95;;;;;;;;;;5068986;28;20523;-62
2022/03/14 02:29:09;;;;;;;4.82;1.95;;;;;;;;;;5070138;28;20164;-62
2022/03/14 02:31:36;;;;;;;3.55;1.73;;;;;;;;;;5069514;28;20053;-62
2022/03/14 02:34:03;;;;;;;3.75;1.90;;;;;;;;;;5068985;28;20047;-62
2022/03/14 02:36:30;;;;;;;4.10;1.73;;;;;;;;;;5069382;28;20543;-62
2022/03/14 02:38:56;;;;;;;4.35;1.88;;;;;;;;;;5069342;28;20064;-63
2022/03/14 02:41:23;;;;;;;3.92;1.98;;;;;;;;;;5069762;28;20053;-63
2022/03/14 02:43:49;;;;;;;5.95;2.10;;;;;;;;;;5069499;28;20052;-61
2022/03/14 02:46:15;;;;;;;4.35;1.92;;;;;;;;;;5069611;28;20052;-61
2022/03/14 02:48:42;;;;;;;3.92;1.95;;;;;;;;;;5076411;28;20060;-63
2022/03/14 02:51:08;;;;;;;4.72;2.08;;;;;;;;;;5087034;28;20056;-61
2022/03/14 02:53:35;;;;;;;4.68;1.90;;;;;;;;;;5089881;28;20061;-60
2022/03/14 02:56:01;;;;;;;4.30;1.92;;;;;;;;;;5089388;28;20048;-63
2022/03/14 02:58:29;;;;;;;4.50;2.05;;;;;;;;;;5089002;28;20540;-61
2022/03/14 03:00:56;;;;;;;4.05;2.10;;;;;;;;;;5089869;28;20059;-62
2022/03/14 03:03:23;;;;;;;5.10;2.57;;;;;;;;;;5089728;28;20056;-62
2022/03/14 03:05:49;;;;;;;4.25;1.92;;;;;;;;;;5089691;28;20057;-62
2022/03/14 03:08:16;;;;;;;5.32;2.20;;;;;;;;;;5089751;28;20053;-62
2022/03/14 03:10:42;;;;;;;6.10;2.60;;;;;;;;;;5089046;28;20075;-62
2022/03/14 03:13:11;;;;;;;4.70;1.95;;;;;;;;;;5089015;28;20553;-62
2022/03/14 03:15:38;;;;;;;4.10;2.10;;;;;;;;;;5088235;28;21435;-62
2022/03/14 03:18:05;;;;;;;4.80;2.20;;;;;;;;;;5088262;28;20052;-62
2022/03/14 03:20:31;;;;;;;5.32;2.30;;;;;;;;;;5068648;28;20148;-62
2022/03/14 03:22:58;;;;;;;4.22;1.85;;;;;;;;;;5068643;28;20048;-62
2022/03/14 03:25:24;;;;;;;4.63;2.20;;;;;;;;;;5068487;28;20180;-62
2022/03/14 03:27:51;;;;;;;4.25;2.20;;;;;;;;;;5068924;28;20061;-62
2022/03/14 03:30:21;;;;;;;4.72;2.50;;;;;;;;;;5069280;28;20053;-62
2022/03/14 03:32:48;;;;;;;5.47;2.40;;;;;;;;;;5068910;28;20057;-62
2022/03/14 03:35:14;;;;;;;6.07;2.20;;;;;;;;;;5068683;28;20059;-62
2022/03/14 03:37:40;;;;;;;8.10;2.80;;;;;;;;;;5069160;28;20166;-62
2022/03/14 03:40:07;;;;;;;4.70;2.35;;;;;;;;;;5067635;28;20049;-62
2022/03/14 03:42:34;;;;;;;5.47;2.55;;;;;;;;;;5068091;28;20068;-62
2022/03/14 03:45:00;;;;;;;4.38;2.17;;;;;;;;;;5067618;28;20525;-62
2022/03/14 03:47:26;;;;;;;5.00;2.72;;;;;;;;;;5068304;28;20147;-62
2022/03/14 03:49:53;;;;;;;5.57;2.50;;;;;;;;;;5068997;28;20131;-62
2022/03/14 03:52:19;;;;;;;5.00;2.70;;;;;;;;;;5068131;28;20469;-62
2022/03/14 03:54:45;;;;;;;5.10;2.72;;;;;;;;;;5067886;28;20068;-62
2022/03/14 03:57:12;;;;;;;4.90;2.65;;;;;;;;;;5074631;28;20055;-62
2022/03/14 03:59:39;;;;;;;5.00;2.63;;;;;;;;;;5088292;28;20083;-62
2022/03/14 04:02:08;;;;;;;6.00;2.78;;;;;;;;;;5088294;28;20056;-62
2022/03/14 04:04:35;;;;;;;5.88;3.03;;;;;;;;;;5087858;28;20060;-62
2022/03/14 04:07:02;;;;;;;5.20;2.88;;;;;;;;;;5073092;28;20061;-62
2022/03/14 04:09:29;;;;;;;5.65;2.80;;;;;;;;;;5067862;28;20144;-62
2022/03/14 04:11:55;;;;;;;5.63;2.92;;;;;;;;;;5067345;28;20515;-62
2022/03/14 04:14:26;;;;;;;6.60;3.47;;;;;;;;;;5068211;28;20087;-62
2022/03/14 04:16:53;;;;;;;6.72;3.70;;;;;;;;;;5067520;28;20511;-62
2022/03/14 04:19:20;;;;;;;6.75;3.75;;;;;;;;;;5068067;28;20106;-62
2022/03/14 04:21:48;;;;;;;6.00;3.45;;;;;;;;;;5067989;28;20634;-62
2022/03/14 04:24:15;;;;;;;7.68;4.60;;;;;;;;;;5067983;28;20052;-62
2022/03/14 04:26:41;;;;;;;7.63;4.65;;;;;;;;;;5067270;28;20053;-62
2022/03/14 04:29:08;;;;;;;8.45;4.53;;;;;;;;;;5066953;28;20059;-62
2022/03/14 04:31:35;;;;;;;8.18;4.80;;;;;;;;;;5067310;28;20126;-62
2022/03/14 04:34:02;;;;;;;8.60;4.78;;;;;;;;;;5067423;28;20080;-62
2022/03/14 04:36:28;;;;;;;9.00;4.80;;;;;;;;;;5066897;28;20053;-62
2022/03/14 04:38:55;;;;;;;7.75;4.72;;;;;;;;;;5066644;28;20053;-62
2022/03/14 04:41:21;;;;;;;9.20;4.68;;;;;;;;;;5068248;28;20148;-62
2022/03/14 04:43:47;;;;;;;7.45;4.65;;;;;;;;;;5067910;28;20053;-62
2022/03/14 04:46:14;;;;;;;8.00;5.00;;;;;;;;;;5067035;28;20107;-62
2022/03/14 04:48:40;;;;;;;8.77;5.30;;;;;;;;;;5071179;28;20060;-62
2022/03/14 04:51:07;;;;;;;8.18;5.40;;;;;;;;;;5087375;28;20049;-62
2022/03/14 04:53:36;;;;;;;8.93;5.60;;;;;;;;;;5087195;28;20910;-62
2022/03/14 04:56:03;;;;;;;9.63;5.97;;;;;;;;;;5087273;28;20058;-62
2022/03/14 04:58:30;;;;;;;10.20;6.13;;;;;;;;;;5068133;28;20075;-62
2022/03/14 05:00:56;;;;;;;9.68;6.13;;;;;;;;;;5067040;28;20059;-62
2022/03/14 05:03:23;;;;;;;9.65;6.05;;;;;;;;;;5067256;28;20889;-62
2022/03/14 05:05:49;;;;;;;10.27;6.85;;;;;;;;;;5067572;28;20053;-62
2022/03/14 05:08:15;;;;;;;12.82;8.07;;;;;;;;;;5068070;28;20427;-62
2022/03/14 05:10:42;;;;;;;13.50;9.35;;;;;;;;;;5066727;28;20522;-62
2022/03/14 05:13:08;;;;;;;16.05;9.73;;;;;;;;;;5066041;28;20064;-62
2022/03/14 05:15:34;;;;;;;13.35;9.63;;;;;;;;;;5069354;28;20048;-62
2022/03/14 05:18:01;;;;;;;14.48;9.65;;;;;;;;;;5070060;28;20507;-62
2022/03/14 05:20:28;;;;;;;15.80;10.50;;;;;;;;;;5077496;28;20060;-62
2022/03/14 05:22:54;;;;;;;16.02;9.57;;;;;;;;;;5090297;28;20087;-62
2022/03/14 05:25:21;;;;;;;13.38;9.00;;;;;;;;;;5090647;28;20048;-62
2022/03/14 05:27:47;;;;;;;13.75;10.13;;;;;;;;;;5090216;28;20136;-62
2022/03/14 05:30:14;;;;;;;12.82;8.90;;;;;;;;;;5090432;28;20183;-62
2022/03/14 05:32:42;;;;;;;13.63;8.82;;;;;;;;;;5070642;28;20053;-62
2022/03/14 05:35:11;;;;;;;14.00;9.43;;;;;;;;;;5069855;28;20081;-62
2022/03/14 05:37:39;;;;;;;12.75;9.63;;;;;;;;;;5069793;28;20049;-62
2022/03/14 05:40:06;;;;;;;15.13;10.25;;;;;;;;;;5069762;28;20172;-62
2022/03/14 05:42:32;;;;;;;14.95;10.15;;;;;;;;;;5069641;28;20045;-62
2022/03/14 05:44:58;;;;;;;15.80;11.27;;;;;;;;;;5069454;28;20521;-62
2022/03/14 05:47:25;;;;;;;14.82;10.63;;;;;;;;;;5071153;28;20061;-62
2022/03/14 05:49:51;;;;;;;17.38;10.77;;;;;;;;;;5076733;28;20080;-62
2022/03/14 05:52:19;;;;;;;17.17;10.77;;;;;;;;;;5069910;28;20065;-62
2022/03/14 05:54:46;;;;;;;19.75;11.20;;;;;;;;;;5069659;28;20140;-62
2022/03/14 05:57:12;;;;;;;19.17;11.52;;;;;;;;;;5069849;28;20584;-61
2022/03/14 05:59:38;;;;;;;21.75;11.57;;;;;;;;;;5069685;28;20620;-61
2022/03/14 06:02:05;;;;;;;22.25;11.93;;;;;;;;;;5069238;28;20148;-62
2022/03/14 06:04:31;;;;;;;17.30;11.68;;;;;;;;;;5070258;28;20064;-62
2022/03/14 06:06:58;;;;;;;18.45;11.57;;;;;;;;;;5069043;28;20103;-61
2022/03/14 06:09:28;;;;;;;17.52;11.85;;;;;;;;;;5069560;28;20581;-61
2022/03/14 06:11:57;;;;;;;19.13;11.52;;;;;;;;;;5069056;28;20061;-61
2022/03/14 06:14:24;;;;;;;19.92;11.35;;;;;;;;;;5069579;28;20073;-62
2022/03/14 06:16:50;;;;;;;18.50;11.45;;;;;;;;;;5070147;28;20504;-62
2022/03/14 06:19:16;;;;;;;17.17;10.80;;;;;;;;;;5069728;28;20053;-62
2022/03/14 06:21:43;;;;;;;19.35;10.63;;;;;;;;;;5069951;28;20048;-61
2022/03/14 06:24:09;;;;;;;20.35;10.85;;;;;;;;;;5068880;28;20045;-61
2022/03/14 06:26:35;;;;;;;16.67;10.55;;;;;;;;;;5067905;28;20059;-62
2022/03/14 06:29:02;;;;;;;19.58;11.70;;;;;;;;;;5069455;28;20061;-61
2022/03/14 06:31:31;;;;;;;19.67;11.65;;;;;;;;;;5068599;28;20063;-61
2022/03/14 06:33:58;;;;;;;20.30;12.32;;;;;;;;;;5069364;28;20542;-62
2022/03/14 06:36:26;;;;;;;21.13;11.45;;;;;;;;;;5069123;28;20053;-61
2022/03/14 06:38:53;;;;;;;20.33;12.52;;;;;;;;;;5070307;28;20052;-62
2022/03/14 06:41:19;;;;;;;24.52;14.05;;;;;;;;;;5069542;28;20565;-61
2022/03/14 06:43:45;;;;;;;23.10;13.30;;;;;;;;;;5069160;28;20053;-62
2022/03/14 06:46:12;;;;;;;26.52;14.45;;;;;;;;;;5069329;28;20053;-61
2022/03/14 06:48:40;;;;;;;22.85;13.73;;;;;;;;;;5068637;28;20060;-62
2022/03/14 06:51:06;;;;;;;23.33;13.43;;;;;;;;;;5077750;28;20055;-62
2022/03/14 06:53:33;;;;;;;23.83;13.85;;;;;;;;;;5089687;28;20060;-61
2022/03/14 06:55:59;;;;;;;24.70;13.85;;;;;;;;;;5087365;28;20063;-62
2022/03/14 06:58:26;;;;;;;21.88;13.63;;;;;;;;;;5088754;28;20060;-62
2022/03/14 07:00:53;;;;;;;17.83;12.38;;;;;;;;;;5089314;28;20052;-61
2022/03/14 07:03:19;;;;;;;21.77;12.60;;;;;;;;;;5089003;28;20859;-62
2022/03/14 07:05:46;;;;;;;21.88;12.63;;;;;;;;;;5089431;28;20976;-62
2022/03/14 07:08:12;;;;;;;17.35;12.43;;;;;;;;;;5089394;28;20054;-61
2022/03/14 07:10:39;;;;;;;20.98;12.57;;;;;;;;;;5088593;28;20174;-62
2022/03/14 07:13:05;;;;;;;26.50;15.18;;;;;;;;;;5081437;28;20057;-62
2022/03/14 07:15:33;;;;;;;23.90;14.00;;;;;;;;;;5069131;28;20431;-62
2022/03/14 07:17:59;;;;;;;25.20;14.48;;;;;;;;;;5068025;28;20149;-62
2022/03/14 07:20:26;;;;;;;22.35;13.95;;;;;;;;;;5068403;28;20144;-61
2022/03/14 07:22:53;;;;;;;24.40;14.82;;;;;;;;;;5068733;28;20048;-61
2022/03/14 07:25:26;;;;;;;22.58;14.93;;;;;;;;;;5067930;28;20554;-61
2022/03/14 07:27:53;;;;;;;25.88;15.38;;;;;;;;;;5068410;28;20049;-61
2022/03/14 07:30:21;;;;;;;23.02;14.65;;;;;;;;;;5069374;28;21028;-61
2022/03/14 07:32:47;;;;;;;27.13;16.65;;;;;;;;;;5068211;28;20581;-61
2022/03/14 07:35:14;;;;;;;24.33;15.63;;;;;;;;;;5068323;28;20057;-62
2022/03/14 07:37:41;;;;;;;30.38;17.20;;;;;;;;;;5068444;28;20867;-61
2022/03/14 07:40:08;;;;;;;28.17;17.55;;;;;;;;;;5068228;28;20053;-62
2022/03/14 07:42:44;;;;;;;31.02;18.13;;;;;;;;;;5068578;28;20144;-61
2022/03/14 07:45:11;;;;;;;30.48;18.30;;;;;;;;;;5067618;28;20057;-61
2022/03/14 07:47:39;;;;;;;33.72;18.50;;;;;;;;;;5068616;28;20053;-61
2022/03/14 07:50:06;;;;;;;32.83;19.02;;;;;;;;;;5084353;28;20078;-62
2022/03/14 07:52:32;;;;;;;29.95;18.50;;;;;;;;;;5067943;28;20075;-62
2022/03/14 07:54:59;;;;;;;30.85;18.23;;;;;;;;;;5068103;28;20136;-62
2022/03/14 07:57:25;;;;;;;32.22;17.77;;;;;;;;;;5068283;28;20507;-62
2022/03/14 07:59:52;;;;;;;29.88;17.80;;;;;;;;;;5068309;28;20045;-62
2022/03/14 08:02:18;;;;;;;29.25;17.83;;;;;;;;;;5068195;28;20503;-61
2022/03/14 08:04:45;;;;;;;32.28;18.20;;;;;;;;;;5067928;28;20531;-62
2022/03/14 08:07:11;;;;;;;29.33;17.88;;;;;;;;;;5068567;28;20183;-61
2022/03/14 08:09:37;;;;;;;27.20;17.73;;;;;;;;;;5067735;28;20045;-62
2022/03/14 08:12:04;;;;;;;30.60;18.60;;;;;;;;;;5067706;28;20856;-62
2022/03/14 08:14:31;;;;;;;24.90;16.20;;;;;;;;;;5068547;28;20053;-62
2022/03/14 08:16:59;;;;;;;32.72;17.08;;;;;;;;;;5067382;28;20088;-62
2022/03/14 08:19:25;;;;;;;26.98;16.67;;;;;;;;;;5068381;28;20190;-62
2022/03/14 08:21:51;;;;;;;32.10;17.25;;;;;;;;;;5069043;28;20053;-62
2022/03/14 08:24:18;;;;;;;32.78;18.83;;;;;;;;;;5068233;28;20061;-62
2022/03/14 08:26:44;;;;;;;34.72;19.30;;;;;;;;;;5067819;28;20057;-62
2022/03/14 08:29:10;;;;;;;40.95;21.52;;;;;;;;;;5067686;28;20140;-62
2022/03/14 08:31:37;;;;;;;41.42;23.50;;;;;;;;;;5068074;28;20085;-61
2022/03/14 08:34:06;;;;;;;42.10;22.50;;;;;;;;;;5067205;28;20037;-62
2022/03/14 08:36:35;;;;;;;42.70;21.98;;;;;;;;;;5067816;28;20972;-61
2022/03/14 08:39:04;;;;;;;48.58;23.63;;;;;;;;;;5068013;28;20496;-62
2022/03/14 08:41:30;;;;;;;;;;;;;;;;;;5068238;28;20059;-62
2022/03/14 08:43:57;;;;;;;47.28;24.02;;;;;;;;;;5067132;28;44419;-62
2022/03/14 08:46:23;;;;;;;44.58;24.85;;;;;;;;;;5068173;28;20055;-62
2022/03/14 08:48:49;;;;;;;46.22;24.15;;;;;;;;;;5066036;28;20053;-62
2022/03/14 08:51:16;;;;;;;41.15;23.73;;;;;;;;;;5073960;28;20061;-62
2022/03/14 08:53:42;;;;;;;48.53;25.40;;;;;;;;;;5068176;28;20056;-62
2022/03/14 08:56:10;;;;;;;50.42;26.90;;;;;;;;;;5067507;28;20053;-62
2022/03/14 08:58:36;;;;;;;45.90;25.10;;;;;;;;;;5066800;28;20077;-62
2022/03/14 09:01:03;;;;;;;45.72;24.17;;;;;;;;;;5067569;28;20056;-62
2022/03/14 09:03:30;;;;;;;44.08;24.75;;;;;;;;;;5067162;28;20491;-62
2022/03/14 09:05:57;;;;;;;44.95;25.17;;;;;;;;;;5067649;28;20060;-62
2022/03/14 09:08:24;;;;;;;40.10;22.83;;;;;;;;;;5067615;28;20144;-62
2022/03/14 09:10:50;;;;;;;37.08;22.55;;;;;;;;;;5066507;28;20064;-62
2022/03/14 09:13:17;;;;;;;44.05;23.95;;;;;;;;;;5068332;28;20049;-61
2022/03/14 09:15:44;;;;;;;40.03;23.52;;;;;;;;;;5067218;28;20057;-62
2022/03/14 09:18:10;;;;;;;43.78;24.10;;;;;;;;;;5066970;28;20080;-62
2022/03/14 09:20:38;;;;;;;44.58;25.40;;;;;;;;;;5066599;28;20490;-62
2022/03/14 09:23:05;;;;;;;45.42;25.40;;;;;;;;;;5066340;28;20055;-62
2022/03/14 09:25:31;;;;;;;42.30;23.50;;;;;;;;;;5067178;28;20049;-62
2022/03/14 09:27:59;;;;;;;41.78;25.05;;;;;;;;;;5066791;28;20057;-61
2022/03/14 09:30:25;;;;;;;42.35;23.92;;;;;;;;;;5067714;28;20049;-61
2022/03/14 09:32:53;;;;;;;38.97;23.23;;;;;;;;;;5066508;28;20576;-62
2022/03/14 09:35:20;;;;;;;40.73;23.13;;;;;;;;;;5068938;28;20053;-62
2022/03/14 09:37:47;;;;;;;41.58;23.63;;;;;;;;;;5074679;28;20057;-62
2022/03/14 09:40:18;;;;;;;39.78;22.40;;;;;;;;;;5067564;28;20053;-64
2022/03/14 09:42:49;;;;;;;39.30;21.40;;;;;;;;;;5075830;28;20056;-62
2022/03/14 09:45:15;;;;;;;39.97;21.92;;;;;;;;;;5082494;28;20067;-62
2022/03/14 09:47:43;;;;;;;37.15;21.10;;;;;;;;;;5066230;28;20053;-62
2022/03/14 09:50:13;;;;;;;37.53;21.55;;;;;;;;;;5065732;28;20063;-62
2022/03/14 09:52:41;;;;;;;33.30;21.95;;;;;;;;;;5080130;28;20052;-62
2022/03/14 09:55:08;;;;;;;38.45;22.42;;;;;;;;;;5087449;28;20147;-62
2022/03/14 09:57:35;;;;;;;37.72;22.70;;;;;;;;;;5087186;28;20045;-62
2022/03/14 10:00:03;;;;;;;40.22;23.20;;;;;;;;;;5080932;28;20048;-62
2022/03/14 10:02:29;;;;;;;43.85;22.40;;;;;;;;;;5083548;28;20049;-62
2022/03/14 10:04:56;;;;;;;38.75;21.20;;;;;;;;;;5089588;28;20076;-62
2022/03/14 10:07:22;;;;;;;41.95;20.75;;;;;;;;;;5083252;28;20070;-62
2022/03/14 10:09:54;;;;;;;37.75;20.40;;;;;;;;;;5111258;27;20514;-62
2022/03/14 10:12:20;;;;;;;;;;;;;;;;;;5098560;27;20433;-62
2022/03/14 10:14:46;;;;;;;35.13;20.13;;;;;;;;;;5106023;27;42758;-62
2022/03/14 10:17:13;;;;;;;34.28;19.48;;;;;;;;;;5081127;28;20056;-62
2022/03/14 10:19:39;;;;;;;26.90;16.75;;;;;;;;;;5085846;28;20143;-62
2022/03/14 10:22:13;;;;;;;28.67;16.60;;;;;;;;;;5069685;28;20055;-62
2022/03/14 10:24:40;;;;;;;27.30;16.95;;;;;;;;;;5087108;28;20111;-62
2022/03/14 10:27:06;;;;;;;28.98;16.88;;;;;;;;;;5068824;28;20088;-62
2022/03/14 10:29:35;;;;;;;27.08;16.95;;;;;;;;;;5078240;28;20144;-62
2022/03/14 10:32:02;;;;;;;;;;;;;;;;;;5090148;28;20055;-62
2022/03/14 10:34:28;;;;;;;26.75;17.38;;;;;;;;;;5077157;28;44387;-63
2022/03/14 10:36:57;;;;;;;30.60;16.67;;;;;;;;;;5087601;28;20062;-62
2022/03/14 10:39:26;;;;;;;26.58;15.07;;;;;;;;;;5083470;28;20143;-62
2022/03/14 10:42:05;;;;;;;25.27;14.73;;;;;;;;;;5089774;28;20049;-62
2022/03/14 10:44:48;;;;;;;33.20;17.15;;;;;;;;;;5088533;28;20140;-62
2022/03/14 10:47:14;;;;;;;28.27;16.52;;;;;;;;;;5084428;28;20517;-62
2022/03/14 10:49:43;;;;;;;29.48;17.25;;;;;;;;;;5084524;28;20470;-62
2022/03/14 10:52:13;;;;;;;;;;;;;;;;;;5089422;28;20163;-62
2022/03/14 10:54:41;;;;;;;28.55;15.20;;;;;;;;;;5088581;28;44003;-62
2022/03/14 10:57:10;;;;;;;29.27;15.82;;;;;;;;;;5082717;28;20143;-62
2022/03/14 10:59:40;;;;;;;28.67;14.93;;;;;;;;;;5089869;27;20052;-62
2022/03/14 11:02:08;;;;;;;27.15;15.55;;;;;;;;;;5088281;28;20079;-62
2022/03/14 11:04:41;;;;;;;22.15;12.40;;;;;;;;;;5089276;28;20570;-62
2022/03/14 11:07:07;;;;;;;23.27;12.23;;;;;;;;;;5088141;28;22055;-62
2022/03/14 11:09:39;;;;;;;21.38;11.98;;;;;;;;;;5088383;28;20056;-62
2022/03/14 11:12:07;;;;;;;23.25;12.82;;;;;;;;;;5071216;28;20071;-61
2022/03/14 11:14:34;;;;;;;26.75;13.88;;;;;;;;;;5069380;28;20053;-62
2022/03/14 11:17:14;;;;;;;25.50;14.02;;;;;;;;;;5074128;28;20060;-63
2022/03/14 11:19:40;;;;;;;21.67;13.25;;;;;;;;;;5097038;28;20054;-62
2022/03/14 11:22:10;;;;;;;26.08;13.60;;;;;;;;;;5070894;28;20510;-62
2022/03/14 11:24:38;;;;;;;22.13;13.38;;;;;;;;;;5068997;28;20522;-62
2022/03/14 11:27:05;;;;;;;22.05;13.23;;;;;;;;;;5079077;28;20056;-62
2022/03/14 11:29:32;;;;;;;26.08;13.70;;;;;;;;;;5069521;28;20045;-62
2022/03/14 11:31:59;;;;;;;27.30;13.05;;;;;;;;;;5083758;28;20134;-62
2022/03/14 11:34:46;;;;;;;26.17;14.38;;;;;;;;;;5089497;28;20056;-62
2022/03/14 11:37:13;;;;;;;26.25;14.52;;;;;;;;;;5086524;28;20145;-62
2022/03/14 11:39:42;;;;;;;26.60;13.48;;;;;;;;;;5088705;28;20052;-62
2022/03/14 11:42:09;;;;;;;26.15;12.90;;;;;;;;;;5087221;28;20057;-62
2022/03/14 11:44:36;;;;;;;21.05;11.43;;;;;;;;;;5086069;28;20055;-62
2022/03/14 11:47:03;;;;;;;20.65;9.20;;;;;;;;;;5077923;28;20475;-62
2022/03/14 11:49:31;;;;;;;15.55;9.07;;;;;;;;;;5087567;28;20068;-62
2022/03/14 11:52:08;;;;;;;15.93;8.63;;;;;;;;;;5081624;28;20049;-62
2022/03/14 11:54:36;;;;;;;16.30;8.63;;;;;;;;;;5069815;28;20140;-62
2022/03/14 11:57:02;;;;;;;18.13;8.98;;;;;;;;;;5078587;28;20049;-62
2022/03/14 11:59:30;;;;;;;16.88;7.88;;;;;;;;;;5098817;28;20052;-63
2022/03/14 12:02:00;;;;;;;14.95;8.05;;;;;;;;;;5079525;28;20059;-62
2022/03/14 12:04:30;;;;;;;17.23;7.65;;;;;;;;;;5088696;28;20052;-62
2022/03/14 12:06:57;;;;;;;17.77;7.90;;;;;;;;;;5091026;28;20048;-62
2022/03/14 12:09:23;;;;;;;21.08;8.07;;;;;;;;;;5094151;27;20048;-62
2022/03/14 12:11:50;;;;;;;15.75;6.68;;;;;;;;;;5086365;28;20131;-63
2022/03/14 12:14:35;;;;;;;17.70;6.88;;;;;;;;;;5069988;28;20048;-62
2022/03/14 12:17:14;;;;;;;15.65;6.80;;;;;;;;;;5071863;28;20067;-62
2022/03/14 12:19:42;;;;;;;20.95;7.40;;;;;;;;;;5068155;28;20057;-62
2022/03/14 12:22:13;;;;;;;15.35;7.18;;;;;;;;;;5071009;28;20102;-63
2022/03/14 12:24:39;;;;;;;15.68;7.18;;;;;;;;;;5087734;28;21858;-62
2022/03/14 12:27:19;;;;;;;20.00;7.55;;;;;;;;;;5089351;28;20054;-62
2022/03/14 12:29:46;;;;;;;17.55;7.53;;;;;;;;;;5078040;28;20057;-62
2022/03/14 12:32:31;;;;;;;20.50;8.70;;;;;;;;;;5070166;28;20057;-62
2022/03/14 12:34:57;;;;;;;16.95;7.57;;;;;;;;;;5068500;28;20570;-62
2022/03/14 12:37:44;;;;;;;20.67;7.30;;;;;;;;;;5087263;28;20045;-62
2022/03/14 12:40:14;;;;;;;15.13;6.43;;;;;;;;;;5089301;28;20052;-63
2022/03/14 12:42:41;;;;;;;16.77;6.60;;;;;;;;;;5078830;28;20053;-63
2022/03/14 12:45:24;;;;;;;13.87;6.20;;;;;;;;;;5076723;28;20057;-63
2022/03/14 12:47:57;;;;;;;15.38;6.35;;;;;;;;;;5069186;28;20079;-62
2022/03/14 12:50:42;;;;;;;16.73;5.93;;;;;;;;;;5068216;28;20119;-62
2022/03/14 12:53:31;;;;;;;14.40;6.40;;;;;;;;;;5076068;28;20554;-63
2022/03/14 12:55:58;;;;;;;16.05;6.07;;;;;;;;;;5080320;28;20073;-63
2022/03/14 12:58:28;;;;;;;10.57;5.60;;;;;;;;;;5088857;28;20574;-62
2022/03/14 13:00:56;;;;;;;18.55;6.90;;;;;;;;;;5073632;28;20095;-63
2022/03/14 13:03:23;;;;;;;16.13;6.50;;;;;;;;;;5068539;28;20068;-63
2022/03/14 13:05:50;;;;;;;18.25;7.03;;;;;;;;;;5068502;28;20049;-63
2022/03/14 13:08:17;;;;;;;19.17;7.05;;;;;;;;;;5068788;28;20045;-63
2022/03/14 13:10:48;;;;;;;14.70;5.95;;;;;;;;;;5076545;28;20041;-63
2022/03/14 13:13:22;;;;;;;16.50;6.38;;;;;;;;;;5067751;28;20167;-63
2022/03/14 13:16:01;;;;;;;17.50;7.80;;;;;;;;;;5081222;28;20059;-63
2022/03/14 13:18:31;;;;;;;15.07;6.10;;;;;;;;;;5067565;28;20059;-62
2022/03/14 13:20:57;;;;;;;13.43;5.60;;;;;;;;;;5070158;28;20061;-63
2022/03/14 13:23:25;;;;;;;17.65;5.78;;;;;;;;;;5088007;28;20616;-63
2022/03/14 13:25:52;;;;;;;18.88;6.05;;;;;;;;;;5086940;28;20445;-63
2022/03/14 13:28:26;;;;;;;14.50;6.13;;;;;;;;;;5079662;28;20048;-63
2022/03/14 13:30:53;;;;;;;17.58;6.18;;;;;;;;;;5083380;28;20521;-63
2022/03/14 13:33:23;;;;;;;14.32;6.53;;;;;;;;;;5086836;28;20514;-63
2022/03/14 13:35:51;;;;;;;20.05;7.60;;;;;;;;;;5088609;28;20052;-63
2022/03/14 13:38:31;;;;;;;16.80;7.78;;;;;;;;;;5075323;28;20063;-63
2022/03/14 13:40:57;;;;;;;19.33;7.47;;;;;;;;;;5070427;28;20537;-62
2022/03/14 13:43:27;;;;;;;16.90;7.43;;;;;;;;;;5075113;28;20056;-63
2022/03/14 13:46:13;;;;;;;15.02;6.45;;;;;;;;;;5080199;28;20525;-63
2022/03/14 13:48:50;;;;;;;16.95;5.50;;;;;;;;;;5083900;28;20067;-63
2022/03/14 13:51:16;;;;;;;13.88;5.22;;;;;;;;;;5090260;28;20052;-63
2022/03/14 13:53:43;;;;;;;24.48;6.80;;;;;;;;;;5070633;28;20087;-63
2022/03/14 13:56:09;;;;;;;14.77;5.50;;;;;;;;;;5069225;28;20048;-63
2022/03/14 13:58:56;;;;;;;14.65;5.22;;;;;;;;;;5068094;28;20045;-63
2022/03/14 14:01:41;;;;;;;14.75;5.05;;;;;;;;;;5089496;28;20051;-63
2022/03/14 14:04:15;;;;;;;13.73;5.57;;;;;;;;;;5087605;28;20052;-63
2022/03/14 14:06:45;;;;;;;17.75;6.30;;;;;;;;;;5090645;28;20058;-63
2022/03/14 14:09:18;;;;;;;20.48;7.60;;;;;;;;;;5091678;28;20061;-62
2022/03/14 14:12:03;;;;;;;17.67;7.38;;;;;;;;;;5081006;28;20499;-63
2022/03/14 14:14:30;;;;;;;17.17;7.45;;;;;;;;;;5088019;28;20053;-63
2022/03/14 14:17:11;;;;;;;16.95;7.60;;;;;;;;;;5091365;28;20434;-63
2022/03/14 14:19:58;;;;;;;18.00;7.50;;;;;;;;;;5084637;28;20048;-63
2022/03/14 14:22:29;;;;;;;19.80;8.93;;;;;;;;;;5073914;28;20103;-62
2022/03/14 14:24:56;;;;;;;17.83;8.43;;;;;;;;;;5099983;28;20050;-63
2022/03/14 14:27:26;;;;;;;15.55;9.35;;;;;;;;;;5109475;27;20048;-63
2022/03/14 14:29:54;;;;;;;20.55;8.05;;;;;;;;;;5090750;28;20061;-63
2022/03/14 14:32:20;;;;;;;23.90;9.50;;;;;;;;;;5088205;28;20092;-63
2022/03/14 14:34:47;;;;;;;17.83;8.95;;;;;;;;;;5085815;28;20203;-62
2022/03/14 14:37:14;;;;;;;16.20;8.88;;;;;;;;;;5077464;28;20053;-63